This is the latest recevied weather packets stored in our database for station/object W0SS-13. If no packets are shown the sender has not sent any weather packets the latest 1 day(s).
| Time | Temp. | Humidity | Pressure | Rain* | Wind** | Luminosity | Snow |
|---|---|---|---|---|---|---|---|
| 1778073298 | 10° C | 67% | 1018.8 hPa | 0 mm | - | 167 W/m² | - |
| 1778069970 | 7.78° C | 79% | 1017.9 hPa | 0 mm | - | 55 W/m² | - |
| 1778069061 | 7.78° C | 81% | 1017.4 hPa | 0 mm | - | 38 W/m² | - |
| 1778068758 | 7.78° C | 81% | 1017.5 hPa | 0 mm | - | 29 W/m² | - |
| 1778068456 | 7.78° C | 81% | 1017.3 hPa | 0 mm | - | 14 W/m² | - |
| 1778067550 | 7.78° C | 79% | 1016.9 hPa | 0 mm | - | 12 W/m² | - |
| 1778066641 | 7.78° C | 78% | 1017.1 hPa | 0 mm | - | 3 W/m² | - |
| 1778066338 | 7.78° C | 79% | 1017.3 hPa | 0 mm | - | 1 W/m² | - |
| 1778066036 | 7.78° C | 81% | 1017.5 hPa | 0 mm | - | 1 W/m² | - |
| 1778064219 | 7.78° C | 81% | 1018 hPa | 0 mm | - | 0 W/m² | - |
| 1778063311 | 7.78° C | 84% | 1017.9 hPa | 0 mm | - | 0 W/m² | - |
| 1778063009 | 7.78° C | 84% | 1018.1 hPa | 0 mm | - | 0 W/m² | - |
| 1778062706 | 7.78° C | 84% | 1018 hPa | 0 mm | - | 0 W/m² | - |
| 1778062100 | 7.78° C | 85% | 1018.1 hPa | 0 mm | - | 0 W/m² | - |
| 1778061496 | 7.22° C | 86% | 1017.4 hPa | 0 mm | - | 0 W/m² | - |
| 1778060286 | 7.22° C | 87% | 1016.3 hPa | 0 mm | - | 0 W/m² | - |
| 1778059983 | 7.22° C | 87% | 1016.4 hPa | 0 mm | - | 0 W/m² | - |
| 1778059681 | 7.22° C | 87% | 1016.5 hPa | 0 mm | - | 0 W/m² | - |
| 1778059378 | 7.22° C | 87% | 1016.5 hPa | 0 mm | - | 0 W/m² | - |
| 1778058773 | 7.22° C | 86% | 1016.5 hPa | 0 mm | - | 0 W/m² | - |
| 1778057864 | 7.22° C | 86% | 1016.5 hPa | 0 mm | - | 0 W/m² | - |
| 1778057257 | 7.22° C | 86% | 1016.4 hPa | 0 mm | - | 0 W/m² | - |
| 1778056348 | 7.22° C | 85% | 1016.4 hPa | 0 mm | - | 0 W/m² | - |
| 1778055439 | 7.78° C | 85% | 1016.6 hPa | 0 mm | - | 0 W/m² | - |
| 1778055136 | 7.78° C | 84% | 1016.7 hPa | 0 mm | - | 0 W/m² | - |
* Rain latest hour (hover to see other rain measurements)
** Current wind speed in m/s (hover to see current wind gust speed)